Champlain, Canada
Current Conditions -  °F | °C
As of 4:00 AM on Monday 24 Nov 2014 (Local Time) from CYRQ Reporting Station
Haze Haze  
Wind Chill: 30°   Ceiling: 23000
Heat Index: 36°   Visibility: 2.2mi
Dew Point: 36°   Wind: 7mph
Humidity: 100%   Direction: 60°ENE
Pressure: 29.79"   Gusts: NA
Location:  46.43°N, 72.35°W
Report Text: CYRQ 240900Z AUTO 06006KT 2 1/4SM BR FEW095 SCT200 BKN230 02/02 A2979 RMK PRESFR SLP092
Loading
Personal Weather Stations






























Interactive Weather Map New forecast layout! Learn more

10-Day Weather Forecast

Advertisements
Track Severe Weather on mobile